Time;durP1;ratioP1;P1;durP2;ratioP2;P2;SDS_P1;SDS_P2;PMS_P1;PMS_P2;Temp;Humidity;BMP_temperature;BMP_pressure;BME280_temperature;BME280_humidity;BME280_pressure;Samples;Min_cycle;Max_cycle;Signal;HPM_P1;HPM_P2
2023/03/29 00:01:05;;;;;;;8.35;3.30;;;;;;;4.69;100.00;101547.38;5055433;28;20060;-59
2023/03/29 00:03:34;;;;;;;7.90;3.65;;;;;;;4.71;100.00;101542.13;5058131;28;20851;-59
2023/03/29 00:06:04;;;;;;;8.35;3.13;;;;;;;4.64;100.00;101532.78;5066239;28;20476;-58
2023/03/29 00:08:33;;;;;;;9.05;3.22;;;;;;;4.66;100.00;101528.38;5062272;28;20059;-59
2023/03/29 00:11:02;;;;;;;10.52;3.22;;;;;;;4.61;100.00;101518.09;5063455;28;20083;-60
2023/03/29 00:13:30;;;;;;;8.93;2.97;;;;;;;4.66;100.00;101523.16;5061948;28;20059;-60
2023/03/29 00:15:59;;;;;;;7.75;3.22;;;;;;;4.72;100.00;101523.00;5056199;28;20044;-58
2023/03/29 00:18:27;;;;;;;8.23;3.15;;;;;;;4.75;100.00;101528.09;5056157;28;20466;-58
2023/03/29 00:20:57;;;;;;;8.63;3.20;;;;;;;4.76;100.00;101523.72;5060062;28;20036;-60
2023/03/29 00:23:25;;;;;;;6.72;2.80;;;;;;;4.75;100.00;101528.09;5059380;28;20059;-58
2023/03/29 00:25:54;;;;;;;5.68;2.80;;;;;;;4.72;100.00;101531.66;5072352;28;20126;-58
2023/03/29 00:28:23;;;;;;;9.60;3.60;;;;;;;4.72;100.00;101529.03;5061000;28;20045;-58
2023/03/29 00:30:51;;;;;;;8.48;3.83;;;;;;;4.79;100.00;101529.72;5066677;28;20087;-58
2023/03/29 00:33:21;;;;;;;7.75;3.60;;;;;;;4.77;100.00;101526.28;5072405;28;20044;-58
2023/03/29 00:35:53;;;;;;;7.70;3.80;;;;;;;4.76;100.00;101519.41;5072736;28;20535;-58
2023/03/29 00:38:22;;;;;;;7.93;2.90;;;;;;;4.77;100.00;101521.06;5072218;28;20383;-58
2023/03/29 00:40:50;;;;;;;8.60;3.00;;;;;;;4.76;100.00;101523.72;5070618;28;20086;-58
2023/03/29 00:43:19;;;;;;;6.55;2.90;;;;;;;4.79;100.00;101514.09;5068238;28;20048;-58
2023/03/29 00:45:47;;;;;;;6.75;2.65;;;;;;;4.76;100.00;101508.09;5056856;28;20400;-59
2023/03/29 00:48:20;;;;;;;6.13;2.85;;;;;;;4.82;100.00;101500.94;5051981;28;20124;-59
2023/03/29 00:50:56;;;;;;;7.13;3.05;;;;;;;4.82;100.00;101494.91;5048865;28;20076;-59
2023/03/29 00:53:31;;;;;;;9.52;3.35;;;;;;;4.81;100.00;101490.56;5049811;28;20124;-59
2023/03/29 00:56:04;;;;;;;8.45;3.45;;;;;;;4.81;100.00;101496.63;5053794;28;20507;-58
2023/03/29 00:58:38;;;;;;;6.75;2.88;;;;;;;4.85;100.00;101479.16;5059904;28;20045;-58
2023/03/29 01:01:09;;;;;;;6.93;3.08;;;;;;;4.83;100.00;101479.19;5062759;28;20060;-58
2023/03/29 01:03:45;;;;;;;6.20;2.87;;;;;;;4.79;100.00;101471.53;5058280;28;20055;-58
2023/03/29 01:06:18;;;;;;;6.25;2.92;;;;;;;4.85;100.00;101463.50;5056475;28;20079;-58
2023/03/29 01:08:54;;;;;;;6.15;2.53;;;;;;;4.81;100.00;101467.97;5051866;28;20060;-57
2023/03/29 01:11:27;;;;;;;6.65;2.85;;;;;;;4.78;100.00;101462.00;5059155;28;20072;-58
2023/03/29 01:13:58;;;;;;;6.45;2.85;;;;;;;4.82;100.00;101468.84;5066349;28;20052;-58
2023/03/29 01:16:29;;;;;;;6.60;3.00;;;;;;;4.86;100.00;101453.03;5056620;28;20060;-59
2023/03/29 01:18:58;;;;;;;6.75;2.83;;;;;;;4.83;100.00;101453.13;5056630;28;20076;-58
2023/03/29 01:21:31;;;;;;;10.43;3.50;;;;;;;4.83;100.00;101447.94;5058522;28;20110;-58
2023/03/29 01:24:29;;;;;;;6.65;2.95;;;;;;;4.80;100.00;101445.44;5059875;28;20612;-59
2023/03/29 01:27:04;;;;;;;6.50;3.30;;;;;;;4.86;100.00;101429.56;5056617;28;20068;-58
2023/03/29 01:29:36;;;;;;;7.93;2.78;;;;;;;4.89;100.00;101432.09;5057986;28;20396;-59
2023/03/29 01:32:09;;;;;;;7.38;3.22;;;;;;;4.86;100.00;101426.97;5057345;28;20453;-59
2023/03/29 01:34:44;;;;;;;6.68;3.25;;;;;;;4.89;100.00;101426.91;5057699;28;20052;-59
2023/03/29 01:37:23;;;;;;;7.70;3.47;;;;;;;4.82;100.00;101430.56;5058599;28;20512;-59
2023/03/29 01:39:52;;;;;;;7.45;3.05;;;;;;;4.94;100.00;101423.28;5056302;28;20470;-58
2023/03/29 01:42:33;;;;;;;9.48;3.20;;;;;;;4.89;100.00;101426.91;5055846;28;20262;-58
2023/03/29 01:45:11;;;;;;;5.95;3.15;;;;;;;4.91;100.00;101430.28;5052930;28;20060;-58
2023/03/29 01:47:46;;;;;;;9.15;3.58;;;;;;;4.88;100.00;101424.31;5057406;28;20047;-59
2023/03/29 01:50:19;;;;;;;9.80;3.28;;;;;;;4.91;100.00;101419.88;5056954;28;20056;-59
2023/03/29 01:52:53;;;;;;;7.35;3.17;;;;;;;4.99;100.00;101427.44;5056309;28;20040;-60
2023/03/29 01:55:25;;;;;;;11.40;3.38;;;;;;;5.07;100.00;101420.22;5064007;28;20048;-59
2023/03/29 01:57:56;;;;;;;7.30;3.15;;;;;;;5.03;100.00;101422.97;5064263;28;20505;-59
2023/03/29 02:00:28;;;;;;;10.93;3.08;;;;;;;5.05;100.00;101416.81;5060553;28;20109;-58
2023/03/29 02:03:00;;;;;;;7.63;3.10;;;;;;;5.04;100.00;101414.25;5058676;28;20060;-59
2023/03/29 02:05:31;;;;;;;7.32;3.05;;;;;;;5.06;100.00;101417.66;5058964;28;20499;-58
2023/03/29 02:08:01;;;;;;;8.20;3.22;;;;;;;5.10;100.00;101411.44;5061898;28;20392;-58
2023/03/29 02:10:30;;;;;;;6.10;2.85;;;;;;;5.13;100.00;101408.75;5059793;28;20051;-58
2023/03/29 02:12:59;;;;;;;8.05;2.88;;;;;;;5.09;100.00;101407.13;5058411;28;20401;-58
2023/03/29 02:15:29;;;;;;;6.53;3.03;;;;;;;5.10;100.00;101402.75;5063300;28;20104;-58
2023/03/29 02:17:57;;;;;;;6.05;2.53;;;;;;;5.15;100.00;101404.31;5065672;28;20032;-58
2023/03/29 02:20:30;;;;;;;9.25;3.08;;;;;;;5.20;100.00;101405.00;5062658;28;20099;-58
2023/03/29 02:23:04;;;;;;;5.47;2.88;;;;;;;5.20;100.00;101405.00;5062378;28;20052;-58
2023/03/29 02:25:32;;;;;;;6.03;2.88;;;;;;;5.18;100.00;101400.75;5064575;28;20573;-58
2023/03/29 02:28:01;;;;;;;5.78;2.90;;;;;;;5.18;100.00;101404.22;5063771;28;20045;-57
2023/03/29 02:30:40;;;;;;;6.85;2.90;;;;;;;5.18;100.00;101392.91;5061467;28;20503;-59
2023/03/29 02:33:14;;;;;;;6.53;2.60;;;;;;;5.33;100.00;101399.38;5063176;28;20044;-60
2023/03/29 02:35:48;;;;;;;7.22;3.05;;;;;;;5.25;100.00;101394.44;5059933;28;21268;-60
2023/03/29 02:38:17;;;;;;;8.52;2.92;;;;;;;5.25;100.00;101397.06;5071292;28;20087;-59
2023/03/29 02:40:46;;;;;;;7.35;3.00;;;;;;;5.23;100.00;101384.03;5074334;28;20049;-59
2023/03/29 02:43:16;;;;;;;6.90;2.72;;;;;;;5.27;100.00;101390.00;5072750;28;20072;-58
2023/03/29 02:45:47;;;;;;;7.55;2.83;;;;;;;5.28;100.00;101380.44;5054208;28;20098;-59
2023/03/29 02:48:20;;;;;;;7.32;3.65;;;;;;;5.28;100.00;101388.28;5054362;28;20556;-59
2023/03/29 02:50:53;;;;;;;6.53;2.75;;;;;;;5.30;100.00;101389.06;5054088;28;20565;-58
2023/03/29 02:53:26;;;;;;;7.78;3.20;;;;;;;5.35;100.00;101387.16;5054054;28;20140;-59
2023/03/29 02:55:55;;;;;;;8.90;2.95;;;;;;;5.28;100.00;101380.44;5064497;28;20407;-58
2023/03/29 02:58:25;;;;;;;6.43;3.08;;;;;;;5.30;100.00;101383.84;5070307;28;20157;-58
2023/03/29 03:00:57;;;;;;;8.43;3.25;;;;;;;5.28;100.00;101376.06;5063992;28;20094;-58
2023/03/29 03:03:26;;;;;;;8.43;3.40;;;;;;;5.24;100.00;101375.31;5052670;28;20069;-58
2023/03/29 03:05:54;;;;;;;8.07;3.55;;;;;;;5.28;100.00;101375.22;5053903;28;20457;-58
2023/03/29 03:08:22;;;;;;;8.98;3.58;;;;;;;5.28;100.00;101367.41;5061393;28;20082;-58
2023/03/29 03:10:51;;;;;;;13.18;3.53;;;;;;;5.22;100.00;101363.22;5063310;28;20037;-58
2023/03/29 03:13:21;;;;;;;10.05;3.90;;;;;;;5.27;100.00;101365.69;5062173;28;20071;-58
2023/03/29 03:15:49;;;;;;;9.75;3.88;;;;;;;5.21;100.00;101364.16;5058083;28;20120;-57
2023/03/29 03:18:19;;;;;;;10.85;3.83;;;;;;;5.19;100.00;101355.50;5058562;28;20119;-58
2023/03/29 03:20:55;;;;;;;8.90;3.65;;;;;;;5.09;100.00;101347.16;5057969;28;20041;-58
2023/03/29 03:23:24;;;;;;;5.80;3.38;;;;;;;5.04;100.00;101336.88;5061661;28;20377;-57
2023/03/29 03:25:52;;;;;;;8.10;3.78;;;;;;;5.03;100.00;101335.19;5059615;28;20052;-58
2023/03/29 03:28:23;;;;;;;10.80;4.10;;;;;;;5.11;100.00;101337.50;5058257;28;20055;-58
2023/03/29 03:30:51;;;;;;;9.95;4.20;;;;;;;5.06;100.00;101329.88;5058197;28;20036;-58
2023/03/29 03:33:22;;;;;;;9.57;4.07;;;;;;;5.07;100.00;101323.75;5059186;28;20381;-58
2023/03/29 03:35:51;;;;;;;9.45;3.75;;;;;;;5.15;100.00;101317.41;5057530;28;20067;-58
2023/03/29 03:38:19;;;;;;;7.65;3.90;;;;;;;5.17;100.00;101310.41;5058947;28;20131;-58
2023/03/29 03:40:53;;;;;;;10.07;3.65;;;;;;;5.14;100.00;101311.34;5061337;28;20095;-60
2023/03/29 03:43:21;;;;;;;9.30;4.72;;;;;;;5.13;100.00;101314.88;5059543;28;20103;-57
2023/03/29 03:45:52;;;;;;;10.82;4.35;;;;;;;5.12;100.00;101318.38;5057994;28;20071;-58
2023/03/29 03:48:23;;;;;;;10.38;4.03;;;;;;;5.11;100.00;101314.06;5057140;28;20144;-58
2023/03/29 03:50:52;;;;;;;9.82;4.53;;;;;;;5.15;100.00;101318.25;5062482;28;20567;-58
2023/03/29 03:53:21;;;;;;;9.60;4.30;;;;;;;5.13;100.00;101314.88;5059624;28;20563;-58
2023/03/29 03:55:49;;;;;;;8.75;4.10;;;;;;;5.13;100.00;101316.63;5065047;28;20488;-57
2023/03/29 03:58:18;;;;;;;7.93;3.90;;;;;;;5.13;100.00;101320.06;5071670;28;20045;-58
2023/03/29 04:00:49;;;;;;;8.27;4.18;;;;;;;5.15;100.00;101320.84;5055149;28;20105;-58
2023/03/29 04:03:17;;;;;;;8.55;4.20;;;;;;;5.20;100.00;101313.72;5053828;28;20368;-58
2023/03/29 04:05:47;;;;;;;9.38;3.95;;;;;;;5.25;100.00;101319.66;5056661;28;20040;-58
2023/03/29 04:08:16;;;;;;;11.68;4.47;;;;;;;5.19;100.00;101312.03;5062550;28;20045;-58
2023/03/29 04:10:51;;;;;;;11.00;4.35;;;;;;;5.24;100.00;101307.50;5059277;28;20060;-59
2023/03/29 04:13:20;;;;;;;9.93;4.53;;;;;;;5.27;100.00;101311.75;5054902;28;20060;-57
2023/03/29 04:15:52;;;;;;;8.07;4.47;;;;;;;5.19;100.00;101308.56;5062081;28;20561;-57
2023/03/29 04:18:21;;;;;;;;;;;;;;;5.29;100.00;101316.91;5058328;28;20094;-58
2023/03/29 04:20:51;;;;;;;8.55;3.70;;;;;;;5.33;100.00;101318.50;5051365;28;19920;-58
2023/03/29 04:23:19;;;;;;;9.48;4.22;;;;;;;5.32;100.00;101322.06;5058734;28;20040;-58
2023/03/29 04:25:47;;;;;;;9.55;4.40;;;;;;;5.30;100.00;101322.06;5060341;28;20091;-58
2023/03/29 04:28:15;;;;;;;11.63;4.30;;;;;;;5.25;100.00;101316.19;5057774;28;20044;-57
2023/03/29 04:30:45;;;;;;;9.18;4.70;;;;;;;5.27;100.00;101309.16;5060212;28;20044;-58
2023/03/29 04:33:13;;;;;;;9.20;4.50;;;;;;;5.31;100.00;101309.91;5056016;28;20062;-57
2023/03/29 04:35:42;;;;;;;11.25;4.53;;;;;;;5.29;100.00;101316.91;5055965;28;21299;-57
2023/03/29 04:38:11;;;;;;;7.85;3.92;;;;;;;5.33;100.00;101310.69;5061114;28;20391;-57
2023/03/29 04:40:40;;;;;;;10.63;4.45;;;;;;;5.39;100.00;101305.28;5056816;28;20517;-58
2023/03/29 04:43:08;;;;;;;7.45;4.22;;;;;;;5.40;100.00;101312.19;5056445;28;20706;-58
2023/03/29 04:45:37;;;;;;;8.77;4.28;;;;;;;5.39;100.00;101307.88;5058996;28;20052;-58
2023/03/29 04:48:05;;;;;;;9.65;4.65;;;;;;;5.46;100.00;101304.13;5054807;28;20068;-58
2023/03/29 04:50:35;;;;;;;9.48;4.20;;;;;;;5.42;100.00;101306.00;5062518;28;20053;-58
2023/03/29 04:53:03;;;;;;;7.22;3.80;;;;;;;5.41;100.00;101298.22;5060487;28;20090;-57
2023/03/29 04:55:32;;;;;;;10.95;4.30;;;;;;;5.40;100.00;101296.53;5060151;28;20120;-58
2023/03/29 04:58:01;;;;;;;9.38;4.05;;;;;;;5.50;100.00;101294.44;5060660;28;20054;-57
2023/03/29 05:00:31;;;;;;;10.18;4.47;;;;;;;5.46;100.00;101287.63;5058671;28;20060;-57
2023/03/29 05:03:00;;;;;;;9.60;3.80;;;;;;;5.40;100.00;101281.72;5058564;28;20140;-58
2023/03/29 05:05:28;;;;;;;9.35;4.72;;;;;;;5.48;100.00;101288.41;5056126;28;20499;-57
2023/03/29 05:07:56;;;;;;;7.97;4.30;;;;;;;5.42;100.00;101297.31;5054506;28;20129;-59
2023/03/29 05:10:24;;;;;;;7.78;4.63;;;;;;;5.53;100.00;101297.78;5058532;28;20441;-57
2023/03/29 05:12:55;;;;;;;10.27;4.07;;;;;;;5.57;100.00;101294.13;5061478;28;20044;-58
2023/03/29 05:15:23;;;;;;;10.55;4.22;;;;;;;5.48;100.00;101296.25;5061837;28;20105;-58
2023/03/29 05:17:51;;;;;;;9.65;4.25;;;;;;;5.48;100.00;101296.25;5063177;28;20541;-58
2023/03/29 05:20:20;;;;;;;8.63;3.85;;;;;;;5.47;100.00;101292.78;5060108;28;20491;-58
2023/03/29 05:22:49;;;;;;;10.25;4.70;;;;;;;5.45;100.00;101293.75;5057738;28;20099;-58
2023/03/29 05:25:18;;;;;;;8.55;4.32;;;;;;;5.48;100.00;101286.69;5057481;28;20407;-58
2023/03/29 05:27:46;;;;;;;8.73;4.00;;;;;;;5.50;100.00;101287.47;5059485;28;20040;-59
2023/03/29 05:30:16;;;;;;;7.97;4.15;;;;;;;5.52;100.00;101284.78;5062966;28;20056;-59
2023/03/29 05:32:45;;;;;;;12.45;4.25;;;;;;;5.53;100.00;101286.50;5066547;28;20052;-58
2023/03/29 05:35:14;;;;;;;9.27;4.07;;;;;;;5.51;100.00;101288.31;5059278;28;20487;-58
2023/03/29 05:37:46;;;;;;;9.00;4.10;;;;;;;5.50;100.00;101290.06;5060476;28;20048;-58
2023/03/29 05:40:14;;;;;;;9.23;4.15;;;;;;;5.55;100.00;101293.38;5060221;28;20943;-58
2023/03/29 05:42:42;;;;;;;8.23;3.80;;;;;;;5.55;100.00;101297.75;5070496;28;20048;-57
2023/03/29 05:45:11;;;;;;;11.20;4.00;;;;;;;5.59;100.00;101292.34;5071270;28;20110;-58
2023/03/29 05:47:40;;;;;;;8.68;3.90;;;;;;;5.66;100.00;101299.94;5064875;28;20503;-59
2023/03/29 05:50:11;;;;;;;10.07;3.88;;;;;;;5.67;100.00;101304.25;5060495;28;20442;-59
2023/03/29 05:52:39;;;;;;;8.98;4.03;;;;;;;5.68;100.00;101305.94;5061376;28;20658;-59
2023/03/29 05:55:09;;;;;;;8.85;3.85;;;;;;;5.66;100.00;101302.53;5069222;28;20044;-59
2023/03/29 05:57:37;;;;;;;9.82;3.95;;;;;;;5.66;100.00;101303.41;5063035;28;20879;-59
2023/03/29 06:00:14;;;;;;;10.57;4.30;;;;;;;5.69;100.00;101307.66;5063026;28;20071;-59
2023/03/29 06:02:44;;;;;;;8.75;3.90;;;;;;;5.71;100.00;101305.84;5060464;28;21318;-59
2023/03/29 06:05:12;;;;;;;10.13;4.30;;;;;;;5.76;100.00;101293.47;5063634;28;20059;-59
2023/03/29 06:07:41;;;;;;;8.07;3.90;;;;;;;5.80;100.00;101308.09;5058029;28;20511;-59
2023/03/29 06:10:10;;;;;;;8.82;4.15;;;;;;;5.73;100.00;101306.63;5064263;28;20444;-59
2023/03/29 06:12:38;;;;;;;9.55;3.90;;;;;;;5.73;100.00;101304.03;5074288;28;20059;-59
2023/03/29 06:15:07;;;;;;;7.05;3.50;;;;;;;5.77;100.00;101305.63;5059578;28;20048;-59
2023/03/29 06:17:35;;;;;;;8.63;4.05;;;;;;;5.79;100.00;101298.56;5055149;28;20049;-59
2023/03/29 06:20:09;;;;;;;9.52;5.03;;;;;;;5.84;100.00;101298.41;5063031;28;20071;-59
2023/03/29 06:22:38;;;;;;;8.93;4.60;;;;;;;5.83;100.00;101294.94;5064792;28;20052;-59
2023/03/29 06:25:08;;;;;;;9.32;4.47;;;;;;;5.87;100.00;101295.66;5064402;28;20051;-59
2023/03/29 06:27:36;;;;;;;10.50;3.80;;;;;;;5.96;100.00;101302.28;5066868;28;20036;-59
2023/03/29 06:30:05;;;;;;;8.65;3.75;;;;;;;5.98;100.00;101303.13;5058311;28;20045;-59
2023/03/29 06:32:34;;;;;;;10.45;4.13;;;;;;;6.02;100.00;101302.94;5060669;28;20037;-59
2023/03/29 06:35:03;;;;;;;8.73;3.58;;;;;;;6.05;100.00;101288.91;5062562;28;20047;-59
2023/03/29 06:37:33;;;;;;;8.25;3.47;;;;;;;6.11;100.00;101301.75;5064503;28;20110;-59
2023/03/29 06:40:02;;;;;;;8.23;3.70;;;;;;;6.19;100.00;101304.03;5058971;28;20405;-59
2023/03/29 06:42:30;;;;;;;7.38;3.30;;;;;;;6.25;100.00;101302.03;5061644;28;20052;-59
2023/03/29 06:44:58;;;;;;;7.32;3.35;;;;;;;6.30;100.00;101304.47;5051968;28;20045;-59
2023/03/29 06:47:29;;;;;;;8.73;3.88;;;;;;;6.39;100.00;101308.47;5055414;28;20048;-59
2023/03/29 06:49:58;;;;;;;7.40;3.33;;;;;;;6.40;100.00;101310.19;5059068;28;20056;-59
2023/03/29 06:52:26;;;;;;;9.25;3.65;;;;;;;6.44;100.00;101314.38;5057577;28;20486;-60
2023/03/29 06:54:55;;;;;;;10.82;4.15;;;;;;;6.48;100.00;101302.88;5061381;28;20114;-59
2023/03/29 06:57:24;;;;;;;9.07;4.88;;;;;;;6.55;100.00;101316.56;5059421;28;20377;-59
2023/03/29 06:59:52;;;;;;;9.65;3.95;;;;;;;6.58;100.00;101317.25;5062558;28;20039;-59
2023/03/29 07:02:21;;;;;;;8.32;4.40;;;;;;;6.59;100.00;101320.75;5067407;28;20052;-59
2023/03/29 07:04:50;;;;;;;9.70;4.63;;;;;;;6.58;100.00;101308.59;5062703;28;20049;-59
2023/03/29 07:07:21;;;;;;;11.80;4.45;;;;;;;6.65;100.00;101312.63;5064022;28;20048;-59
2023/03/29 07:09:52;;;;;;;8.18;4.30;;;;;;;6.63;100.00;101311.03;5073699;28;20063;-59
2023/03/29 07:12:23;;;;;;;12.38;4.10;;;;;;;6.67;100.00;101321.28;5065957;28;20124;-59
2023/03/29 07:14:51;;;;;;;9.90;4.40;;;;;;;6.66;100.00;101326.56;5056618;28;20037;-59
2023/03/29 07:17:19;;;;;;;9.98;4.35;;;;;;;6.74;100.00;101322.72;5065738;28;20036;-59
2023/03/29 07:19:47;;;;;;;10.43;4.18;;;;;;;6.78;100.00;101315.59;5057936;28;20487;-59
2023/03/29 07:22:16;;;;;;;12.93;4.47;;;;;;;6.82;100.00;101317.19;5061775;28;20040;-59
2023/03/29 07:24:44;;;;;;;10.10;4.78;;;;;;;6.81;100.00;101309.41;5059650;28;20045;-59
2023/03/29 07:27:13;;;;;;;9.60;3.97;;;;;;;6.84;100.00;101312.72;5060989;28;20040;-59
2023/03/29 07:29:46;;;;;;;10.13;4.43;;;;;;;6.88;100.00;101323.91;5058801;28;20446;-59
2023/03/29 07:32:15;;;;;;;7.82;3.92;;;;;;;6.94;100.00;101316.66;5062019;28;20048;-59
2023/03/29 07:34:43;;;;;;;9.85;4.47;;;;;;;7.07;100.00;101306.50;5057070;28;20041;-59
2023/03/29 07:37:11;;;;;;;7.32;3.97;;;;;;;7.06;100.00;101311.81;5063135;28;20055;-59
2023/03/29 07:39:40;;;;;;;11.98;4.68;;;;;;;7.16;100.00;101309.66;5060816;28;20218;-59
2023/03/29 07:42:08;;;;;;;10.93;5.13;;;;;;;7.15;100.00;101314.03;5062045;28;20124;-59
2023/03/29 07:44:36;;;;;;;10.75;4.07;;;;;;;7.31;100.00;101314.22;5049611;28;20098;-59
2023/03/29 07:47:05;;;;;;;10.18;4.18;;;;;;;7.26;100.00;101314.41;5056984;28;20098;-59
2023/03/29 07:49:34;;;;;;;10.35;4.80;;;;;;;7.31;100.00;101310.75;5060149;28;20049;-58
2023/03/29 07:52:02;;;;;;;10.55;4.20;;;;;;;7.37;100.00;101315.72;5062070;28;20052;-58
2023/03/29 07:54:31;;;;;;;8.63;4.47;;;;;;;7.44;100.00;101323.25;5061334;28;20047;-58
2023/03/29 07:56:59;;;;;;;9.40;4.13;;;;;;;7.53;100.00;101318.50;5061395;28;20040;-59
2023/03/29 07:59:27;;;;;;;8.65;4.90;;;;;;;7.63;100.00;101321.56;5059497;28;20319;-59
2023/03/29 08:01:56;;;;;;;11.18;4.40;;;;;;;7.72;100.00;101321.16;5061260;28;20480;-59
2023/03/29 08:04:25;;;;;;;9.57;4.75;;;;;;;7.77;100.00;101313.91;5063633;28;20053;-58
2023/03/29 08:06:54;;;;;;;9.30;4.45;;;;;;;7.89;100.00;101315.97;5059565;28;20041;-58
2023/03/29 08:09:26;;;;;;;11.05;4.38;;;;;;;7.86;100.00;101315.28;5057128;28;20101;-58
2023/03/29 08:11:57;;;;;;;9.43;4.45;;;;;;;7.91;100.00;101322.00;5057394;28;20045;-58
2023/03/29 08:14:25;;;;;;;10.35;4.45;;;;;;;7.95;100.00;101320.94;5060204;28;20048;-59
2023/03/29 08:16:55;;;;;;;8.98;4.95;;;;;;;8.01;100.00;101318.97;5058584;28;20507;-59
2023/03/29 08:19:25;;;;;;;8.85;4.43;;;;;;;8.06;100.00;101323.06;5058530;28;20044;-59
2023/03/29 08:21:54;;;;;;;10.60;4.78;;;;;;;8.20;100.00;101314.53;5057219;28;20040;-58
2023/03/29 08:24:22;;;;;;;12.23;4.70;;;;;;;8.27;100.00;101321.16;5056574;28;20055;-58
2023/03/29 08:26:50;;;;;;;10.32;5.03;;;;;;;8.34;100.00;101326.97;5054807;28;20492;-59
2023/03/29 08:29:18;;;;;;;10.05;4.90;;;;;;;8.41;100.00;101322.28;5055377;28;20079;-59
2023/03/29 08:31:46;;;;;;;10.15;4.90;;;;;;;8.39;100.00;101319.75;5060675;28;20098;-59
2023/03/29 08:34:14;;;;;;;11.00;5.10;;;;;;;8.41;100.00;101311.81;5049744;28;20073;-59
2023/03/29 08:36:44;;;;;;;9.50;4.90;;;;;;;8.44;100.00;101315.13;5056677;28;20044;-59
2023/03/29 08:39:12;;;;;;;11.18;5.00;;;;;;;8.53;100.00;101313.00;5061126;28;20044;-59
2023/03/29 08:41:53;;;;;;;10.90;4.90;;;;;;;8.61;100.00;101309.06;5060277;28;20119;-58
2023/03/29 08:44:40;;;;;;;11.65;5.20;;;;;;;8.67;100.00;101314.94;5058385;28;20106;-58
2023/03/29 08:47:16;;;;;;;10.52;5.20;;;;;;;8.81;100.00;101309.88;5054319;28;20041;-58
2023/03/29 08:49:47;;;;;;;10.48;5.57;;;;;;;8.88;100.00;101306.00;5057842;28;20049;-58
2023/03/29 08:52:23;;;;;;;10.77;4.88;;;;;;;9.05;100.00;101304.31;5057332;28;20490;-58
2023/03/29 08:54:55;;;;;;;11.50;5.32;;;;;;;9.13;100.00;101307.38;5052362;28;20048;-58
2023/03/29 08:57:29;;;;;;;9.52;5.00;;;;;;;9.19;100.00;101303.56;5062883;28;20044;-60
2023/03/29 09:00:00;;;;;;;11.43;5.43;;;;;;;9.28;100.00;101298.72;5061182;28;20446;-60
2023/03/29 09:02:31;;;;;;;11.32;5.75;;;;;;;9.37;100.00;101292.13;5061217;28;20423;-59
2023/03/29 09:05:08;;;;;;;13.07;6.13;;;;;;;9.54;100.00;101298.25;5062697;28;20410;-59
2023/03/29 09:07:38;;;;;;;12.60;5.93;;;;;;;9.68;100.00;101306.25;5066916;28;20037;-59
2023/03/29 09:10:09;;;;;;;10.45;5.82;;;;;;;9.69;100.00;101309.72;5059127;28;20049;-60
2023/03/29 09:12:50;;;;;;;13.00;6.63;;;;;;;9.82;100.00;101316.84;5062352;28;20048;-60
2023/03/29 09:15:24;;;;;;;12.00;6.30;;;;;;;9.79;100.00;101305.69;5064982;28;20052;-60
2023/03/29 09:18:02;;;;;;;11.65;6.55;;;;;;;9.94;100.00;101312.72;5063207;28;20380;-60
2023/03/29 09:20:39;;;;;;;14.27;6.20;;;;;;;9.97;100.00;101306.44;5061243;28;20472;-60
2023/03/29 09:23:33;;;;;;;12.63;7.20;;;;;;;9.98;100.00;101302.88;5062574;28;20411;-60
2023/03/29 09:26:10;;;;;;;13.57;6.10;;;;;;;10.08;100.00;101309.31;5058632;28;20274;-60
2023/03/29 09:28:42;;;;;;;11.63;6.28;;;;;;;10.12;100.00;101315.25;5060924;28;20040;-60
2023/03/29 09:31:15;;;;;;;12.55;6.82;;;;;;;10.20;100.00;101297.28;5064355;28;20037;-60
2023/03/29 09:33:49;;;;;;;11.80;6.30;;;;;;;10.24;100.00;101308.44;5064293;28;20488;-60
2023/03/29 09:36:23;;;;;;;13.65;6.63;;;;;;;10.31;100.00;101304.56;5066356;28;20048;-60
2023/03/29 09:38:54;;;;;;;12.48;6.53;;;;;;;10.43;100.00;101303.88;5061342;28;20526;-60
2023/03/29 09:41:28;;;;;;;10.88;5.90;;;;;;;10.48;100.00;101298.34;5059345;28;20044;-59
2023/03/29 09:44:00;;;;;;;13.65;6.82;;;;;;;10.60;100.00;101300.28;5061943;28;20075;-59
2023/03/29 09:46:38;;;;;;;13.60;8.13;;;;;;;10.58;100.00;101296.91;5059481;28;20044;-60
2023/03/29 09:49:13;;;;;;;13.95;8.00;;;;;;;10.55;100.00;101288.31;5058230;28;20044;-60
2023/03/29 09:51:47;;;;;;;15.02;7.90;;;;;;;10.68;100.00;101293.75;5062385;28;20053;-59
2023/03/29 09:54:17;;;;;;;13.32;7.60;;;;;;;10.90;100.00;101286.25;5062760;28;20036;-59
2023/03/29 09:56:45;;;;;;;14.82;7.82;;;;;;;10.99;100.00;101296.25;5060699;28;20036;-60
2023/03/29 09:59:14;;;;;;;12.32;7.80;;;;;;;10.95;100.00;101288.63;5060906;28;20525;-60
2023/03/29 10:01:44;;;;;;;14.77;7.72;;;;;;;11.13;100.00;101294.56;5056561;28;20056;-60
2023/03/29 10:04:13;;;;;;;14.45;7.40;;;;;;;11.18;100.00;101291.66;5061132;28;20044;-60
2023/03/29 10:06:46;;;;;;;14.00;7.55;;;;;;;11.29;100.00;101297.97;5060512;28;20072;-60
2023/03/29 10:09:19;;;;;;;13.30;7.50;;;;;;;11.38;100.00;101293.06;5062774;28;20041;-60
2023/03/29 10:11:52;;;;;;;13.57;7.57;;;;;;;11.60;100.00;101296.09;5057691;28;20048;-61
2023/03/29 10:14:28;;;;;;;14.45;8.68;;;;;;;11.70;100.00;101293.72;5062170;28;20060;-61
2023/03/29 10:16:57;;;;;;;13.50;7.57;;;;;;;11.71;100.00;101297.19;5073051;28;20377;-59
2023/03/29 10:19:33;;;;;;;13.82;7.82;;;;;;;11.77;100.00;101300.28;5070872;28;20360;-59
2023/03/29 10:22:04;;;;;;;13.95;7.53;;;;;;;11.82;100.00;101290.31;5069823;28;20048;-60
2023/03/29 10:24:33;;;;;;;12.20;7.07;;;;;;;11.95;100.00;101295.66;5061444;28;20032;-60
2023/03/29 10:27:04;;;;;;;11.25;7.10;;;;;;;12.03;100.00;101292.53;5056368;28;20434;-59
2023/03/29 10:29:37;;;;;;;13.88;7.07;;;;;;;12.12;100.00;101278.78;5063838;28;20047;-60
2023/03/29 10:32:15;;;;;;;12.00;6.57;;;;;;;12.12;100.00;101283.19;5059967;28;20049;-61
2023/03/29 10:34:45;;;;;;;12.57;7.00;;;;;;;12.27;100.00;101278.69;5060968;28;20052;-61
2023/03/29 10:37:15;;;;;;;13.10;7.43;;;;;;;12.27;100.00;101279.56;5053144;28;20041;-59
2023/03/29 10:39:46;;;;;;;12.82;7.13;;;;;;;12.16;100.00;101277.63;5055580;28;20064;-61
2023/03/29 10:42:16;;;;;;;14.98;7.35;;;;;;;12.33;100.00;101270.41;5059106;28;20090;-61
2023/03/29 10:44:54;;;;;;;11.25;7.22;;;;;;;12.41;100.00;101276.00;5061532;28;20048;-60
2023/03/29 10:47:23;;;;;;;13.63;7.53;;;;;;;12.48;100.00;101277.28;5064495;28;20033;-60
2023/03/29 10:49:53;;;;;;;13.40;7.38;;;;;;;12.46;100.00;101271.28;5068119;28;20052;-60
2023/03/29 10:52:24;;;;;;;13.07;7.82;;;;;;;12.53;100.00;101279.66;5070504;28;20098;-59
2023/03/29 10:54:58;;;;;;;11.35;7.15;;;;;;;12.59;100.00;101273.94;5072267;28;20510;-60
2023/03/29 10:57:33;;;;;;;11.60;6.68;;;;;;;12.41;100.00;101270.75;5058544;28;20056;-60
2023/03/29 11:00:09;;;;;;;12.63;6.85;;;;;;;12.50;100.00;101266.63;5050293;28;20516;-60
2023/03/29 11:03:17;;;;;;;12.23;7.28;;;;;;;12.52;100.00;101283.22;5052440;28;20404;-59
2023/03/29 11:05:56;;;;;;;13.40;7.50;;;;;;;12.52;100.00;101284.06;5017552;28;20146;-59
2023/03/29 11:08:37;;;;;;;13.98;7.38;;;;;;;12.63;100.00;101277.22;5054496;28;20395;-59
2023/03/29 11:11:30;;;;;;;14.55;7.40;;;;;;;12.44;100.00;101269.69;5058943;28;20049;-60
2023/03/29 11:14:05;;;;;;;14.57;7.28;;;;;;;12.42;100.00;101264.53;5061063;28;20059;-60
2023/03/29 11:16:40;;;;;;;12.13;7.20;;;;;;;12.36;100.00;101269.34;5061238;28;20537;-59
2023/03/29 11:19:36;;;;;;;12.63;7.85;;;;;;;12.11;100.00;101261.25;5058569;28;20051;-59
2023/03/29 11:22:13;;;;;;;12.27;6.93;;;;;;;12.30;100.00;101257.44;5057148;28;20041;-59
2023/03/29 11:24:56;;;;;;;12.55;7.40;;;;;;;12.46;100.00;101257.22;5058235;28;20048;-60
2023/03/29 11:27:33;;;;;;;13.00;7.22;;;;;;;12.37;100.00;101248.16;5066620;28;20157;-60
2023/03/29 11:30:08;;;;;;;12.05;6.85;;;;;;;12.63;100.00;101240.28;5056705;28;20086;-61
2023/03/29 11:32:47;;;;;;;12.30;7.00;;;;;;;12.78;100.00;101235.78;5058251;28;20060;-60
2023/03/29 11:35:36;;;;;;;13.10;6.43;;;;;;;12.66;100.00;101240.91;5062869;28;20036;-59
2023/03/29 11:38:14;;;;;;;10.73;6.50;;;;;;;12.45;100.00;101245.00;5060464;28;20050;-59